sensor_id;sensor_type;location;lat;lon;timestamp;P1;durP1;ratioP1;P2;durP2;ratioP2
29570;SDS011;16814;52.118;11.436;2024-03-22T00:01:45;25.30;;;14.48;;
29570;SDS011;16814;52.118;11.436;2024-03-22T00:04:11;26.77;;;14.53;;
29570;SDS011;16814;52.118;11.436;2024-03-22T00:06:37;23.15;;;14.35;;
29570;SDS011;16814;52.118;11.436;2024-03-22T00:09:04;24.92;;;14.02;;
29570;SDS011;16814;52.118;11.436;2024-03-22T00:11:30;26.70;;;15.00;;
29570;SDS011;16814;52.118;11.436;2024-03-22T00:13:55;25.53;;;14.50;;
29570;SDS011;16814;52.118;11.436;2024-03-22T00:16:21;27.63;;;15.32;;
29570;SDS011;16814;52.118;11.436;2024-03-22T00:18:46;26.10;;;14.23;;
29570;SDS011;16814;52.118;11.436;2024-03-22T00:21:12;26.40;;;14.40;;
29570;SDS011;16814;52.118;11.436;2024-03-22T00:23:37;23.80;;;14.13;;
29570;SDS011;16814;52.118;11.436;2024-03-22T00:26:03;23.80;;;13.57;;
29570;SDS011;16814;52.118;11.436;2024-03-22T00:28:28;26.30;;;14.30;;
29570;SDS011;16814;52.118;11.436;2024-03-22T00:30:54;25.92;;;14.57;;
29570;SDS011;16814;52.118;11.436;2024-03-22T00:33:19;22.00;;;14.13;;
29570;SDS011;16814;52.118;11.436;2024-03-22T00:35:45;24.67;;;14.47;;
29570;SDS011;16814;52.118;11.436;2024-03-22T00:38:10;21.55;;;13.70;;
29570;SDS011;16814;52.118;11.436;2024-03-22T00:40:36;25.07;;;14.33;;
29570;SDS011;16814;52.118;11.436;2024-03-22T00:43:02;20.98;;;13.60;;
29570;SDS011;16814;52.118;11.436;2024-03-22T00:45:27;25.13;;;13.53;;
29570;SDS011;16814;52.118;11.436;2024-03-22T00:47:53;21.83;;;13.00;;
29570;SDS011;16814;52.118;11.436;2024-03-22T00:50:18;26.27;;;13.80;;
29570;SDS011;16814;52.118;11.436;2024-03-22T00:52:44;23.90;;;12.93;;
29570;SDS011;16814;52.118;11.436;2024-03-22T00:55:09;22.63;;;13.23;;
29570;SDS011;16814;52.118;11.436;2024-03-22T00:57:35;20.65;;;13.15;;
29570;SDS011;16814;52.118;11.436;2024-03-22T01:00:01;18.57;;;12.33;;
29570;SDS011;16814;52.118;11.436;2024-03-22T01:02:26;22.70;;;12.43;;
29570;SDS011;16814;52.118;11.436;2024-03-22T01:04:52;22.42;;;12.65;;
29570;SDS011;16814;52.118;11.436;2024-03-22T01:07:17;20.40;;;12.70;;
29570;SDS011;16814;52.118;11.436;2024-03-22T01:09:43;22.47;;;12.60;;
29570;SDS011;16814;52.118;11.436;2024-03-22T01:12:09;22.83;;;12.60;;
29570;SDS011;16814;52.118;11.436;2024-03-22T01:14:35;22.88;;;12.90;;
29570;SDS011;16814;52.118;11.436;2024-03-22T01:17:01;21.17;;;11.82;;
29570;SDS011;16814;52.118;11.436;2024-03-22T01:19:27;19.77;;;12.32;;
29570;SDS011;16814;52.118;11.436;2024-03-22T01:21:52;20.70;;;12.23;;
29570;SDS011;16814;52.118;11.436;2024-03-22T01:24:18;20.13;;;12.73;;
29570;SDS011;16814;52.118;11.436;2024-03-22T01:26:43;21.77;;;12.50;;
29570;SDS011;16814;52.118;11.436;2024-03-22T01:29:09;22.67;;;12.33;;
29570;SDS011;16814;52.118;11.436;2024-03-22T01:31:34;18.93;;;12.30;;
29570;SDS011;16814;52.118;11.436;2024-03-22T01:34:00;19.08;;;12.48;;
29570;SDS011;16814;52.118;11.436;2024-03-22T01:36:26;20.33;;;11.90;;
29570;SDS011;16814;52.118;11.436;2024-03-22T01:38:51;21.43;;;12.27;;
29570;SDS011;16814;52.118;11.436;2024-03-22T01:41:16;18.42;;;11.82;;
29570;SDS011;16814;52.118;11.436;2024-03-22T01:43:43;19.83;;;11.67;;
29570;SDS011;16814;52.118;11.436;2024-03-22T01:46:08;20.85;;;11.95;;
29570;SDS011;16814;52.118;11.436;2024-03-22T01:48:34;20.40;;;11.80;;
29570;SDS011;16814;52.118;11.436;2024-03-22T01:51:00;21.73;;;12.27;;
29570;SDS011;16814;52.118;11.436;2024-03-22T01:53:27;21.80;;;12.45;;
29570;SDS011;16814;52.118;11.436;2024-03-22T01:55:52;21.27;;;11.90;;
29570;SDS011;16814;52.118;11.436;2024-03-22T01:58:18;20.97;;;12.00;;
29570;SDS011;16814;52.118;11.436;2024-03-22T02:00:43;19.48;;;12.15;;
29570;SDS011;16814;52.118;11.436;2024-03-22T02:03:09;21.33;;;12.20;;
29570;SDS011;16814;52.118;11.436;2024-03-22T02:05:34;22.37;;;12.23;;
29570;SDS011;16814;52.118;11.436;2024-03-22T02:08:00;20.08;;;12.50;;
29570;SDS011;16814;52.118;11.436;2024-03-22T02:10:25;22.80;;;12.40;;
29570;SDS011;16814;52.118;11.436;2024-03-22T02:12:51;21.35;;;11.80;;
29570;SDS011;16814;52.118;11.436;2024-03-22T02:15:17;20.37;;;11.77;;
29570;SDS011;16814;52.118;11.436;2024-03-22T02:17:42;16.97;;;10.90;;
29570;SDS011;16814;52.118;11.436;2024-03-22T02:20:08;21.58;;;11.93;;
29570;SDS011;16814;52.118;11.436;2024-03-22T02:22:35;18.73;;;11.93;;
29570;SDS011;16814;52.118;11.436;2024-03-22T02:25:00;18.58;;;11.52;;
29570;SDS011;16814;52.118;11.436;2024-03-22T02:27:26;21.37;;;12.20;;
29570;SDS011;16814;52.118;11.436;2024-03-22T02:29:51;19.53;;;12.50;;
29570;SDS011;16814;52.118;11.436;2024-03-22T02:32:17;22.75;;;12.50;;
29570;SDS011;16814;52.118;11.436;2024-03-22T02:34:43;22.17;;;12.27;;
29570;SDS011;16814;52.118;11.436;2024-03-22T02:37:08;20.53;;;13.23;;
29570;SDS011;16814;52.118;11.436;2024-03-22T02:39:34;19.25;;;12.38;;
29570;SDS011;16814;52.118;11.436;2024-03-22T02:41:59;19.20;;;12.10;;
29570;SDS011;16814;52.118;11.436;2024-03-22T02:44:25;20.80;;;13.40;;
29570;SDS011;16814;52.118;11.436;2024-03-22T02:46:50;22.38;;;13.48;;
29570;SDS011;16814;52.118;11.436;2024-03-22T02:49:16;27.17;;;13.13;;
29570;SDS011;16814;52.118;11.436;2024-03-22T02:51:41;21.57;;;13.07;;
29570;SDS011;16814;52.118;11.436;2024-03-22T02:54:07;21.10;;;12.52;;
29570;SDS011;16814;52.118;11.436;2024-03-22T02:56:32;21.20;;;13.10;;
29570;SDS011;16814;52.118;11.436;2024-03-22T02:58:58;21.83;;;13.20;;
29570;SDS011;16814;52.118;11.436;2024-03-22T03:01:23;21.27;;;13.07;;
29570;SDS011;16814;52.118;11.436;2024-03-22T03:03:49;23.33;;;13.77;;
29570;SDS011;16814;52.118;11.436;2024-03-22T03:06:14;21.33;;;13.03;;
29570;SDS011;16814;52.118;11.436;2024-03-22T03:08:41;21.67;;;13.45;;
29570;SDS011;16814;52.118;11.436;2024-03-22T03:11:07;23.03;;;13.10;;
29570;SDS011;16814;52.118;11.436;2024-03-22T03:13:32;22.93;;;14.07;;
29570;SDS011;16814;52.118;11.436;2024-03-22T03:15:58;23.70;;;13.52;;
29570;SDS011;16814;52.118;11.436;2024-03-22T03:18:23;22.10;;;13.67;;
29570;SDS011;16814;52.118;11.436;2024-03-22T03:20:49;22.80;;;13.53;;
29570;SDS011;16814;52.118;11.436;2024-03-22T03:23:14;21.27;;;13.25;;
29570;SDS011;16814;52.118;11.436;2024-03-22T03:25:40;26.50;;;14.60;;
29570;SDS011;16814;52.118;11.436;2024-03-22T03:28:06;23.45;;;14.15;;
29570;SDS011;16814;52.118;11.436;2024-03-22T03:30:32;23.35;;;15.07;;
29570;SDS011;16814;52.118;11.436;2024-03-22T03:32:58;23.98;;;14.95;;
29570;SDS011;16814;52.118;11.436;2024-03-22T03:35:24;26.43;;;15.27;;
29570;SDS011;16814;52.118;11.436;2024-03-22T03:37:50;26.40;;;15.75;;
29570;SDS011;16814;52.118;11.436;2024-03-22T03:40:16;23.50;;;15.23;;
29570;SDS011;16814;52.118;11.436;2024-03-22T03:42:41;27.13;;;16.40;;
29570;SDS011;16814;52.118;11.436;2024-03-22T03:45:07;26.53;;;16.13;;
29570;SDS011;16814;52.118;11.436;2024-03-22T03:47:33;31.20;;;16.88;;
29570;SDS011;16814;52.118;11.436;2024-03-22T03:49:59;28.58;;;16.35;;
29570;SDS011;16814;52.118;11.436;2024-03-22T03:52:24;28.90;;;17.33;;
29570;SDS011;16814;52.118;11.436;2024-03-22T03:54:50;31.63;;;18.30;;
29570;SDS011;16814;52.118;11.436;2024-03-22T03:57:15;29.98;;;17.63;;
29570;SDS011;16814;52.118;11.436;2024-03-22T03:59:41;32.17;;;17.87;;
29570;SDS011;16814;52.118;11.436;2024-03-22T04:02:06;30.70;;;19.23;;
29570;SDS011;16814;52.118;11.436;2024-03-22T04:04:32;34.65;;;19.88;;
29570;SDS011;16814;52.118;11.436;2024-03-22T04:06:57;34.47;;;20.90;;
29570;SDS011;16814;52.118;11.436;2024-03-22T04:09:23;33.27;;;20.17;;
29570;SDS011;16814;52.118;11.436;2024-03-22T04:11:49;33.97;;;20.92;;
29570;SDS011;16814;52.118;11.436;2024-03-22T04:14:14;39.13;;;22.30;;
29570;SDS011;16814;52.118;11.436;2024-03-22T04:16:40;41.70;;;22.93;;
29570;SDS011;16814;52.118;11.436;2024-03-22T04:19:05;37.95;;;22.83;;
29570;SDS011;16814;52.118;11.436;2024-03-22T04:21:31;43.90;;;23.60;;
29570;SDS011;16814;52.118;11.436;2024-03-22T04:23:56;40.05;;;23.05;;
29570;SDS011;16814;52.118;11.436;2024-03-22T04:26:22;41.70;;;23.77;;
29570;SDS011;16814;52.118;11.436;2024-03-22T04:28:48;37.83;;;22.70;;
29570;SDS011;16814;52.118;11.436;2024-03-22T04:31:14;40.33;;;23.70;;
29570;SDS011;16814;52.118;11.436;2024-03-22T04:33:40;41.57;;;23.37;;
29570;SDS011;16814;52.118;11.436;2024-03-22T04:36:06;37.58;;;22.67;;
29570;SDS011;16814;52.118;11.436;2024-03-22T04:38:34;37.63;;;22.50;;
29570;SDS011;16814;52.118;11.436;2024-03-22T04:41:00;39.22;;;22.75;;
29570;SDS011;16814;52.118;11.436;2024-03-22T04:43:26;37.23;;;22.27;;
29570;SDS011;16814;52.118;11.436;2024-03-22T04:45:52;37.45;;;21.88;;
29570;SDS011;16814;52.118;11.436;2024-03-22T04:48:19;41.77;;;23.10;;
29570;SDS011;16814;52.118;11.436;2024-03-22T04:50:46;39.58;;;24.10;;
29570;SDS011;16814;52.118;11.436;2024-03-22T04:53:13;41.43;;;24.17;;
29570;SDS011;16814;52.118;11.436;2024-03-22T04:55:38;43.42;;;24.05;;
29570;SDS011;16814;52.118;11.436;2024-03-22T04:58:09;41.13;;;25.05;;
29570;SDS011;16814;52.118;11.436;2024-03-22T05:00:45;40.60;;;24.08;;
29570;SDS011;16814;52.118;11.436;2024-03-22T05:03:11;42.65;;;25.13;;
29570;SDS011;16814;52.118;11.436;2024-03-22T05:05:37;42.72;;;25.02;;
29570;SDS011;16814;52.118;11.436;2024-03-22T05:08:04;41.50;;;25.00;;
29570;SDS011;16814;52.118;11.436;2024-03-22T05:10:30;42.95;;;25.30;;
29570;SDS011;16814;52.118;11.436;2024-03-22T05:12:56;40.77;;;25.60;;
29570;SDS011;16814;52.118;11.436;2024-03-22T05:15:22;43.97;;;26.00;;
29570;SDS011;16814;52.118;11.436;2024-03-22T05:17:48;44.10;;;24.70;;
29570;SDS011;16814;52.118;11.436;2024-03-22T05:20:14;44.72;;;25.15;;
29570;SDS011;16814;52.118;11.436;2024-03-22T05:22:41;46.00;;;26.27;;
29570;SDS011;16814;52.118;11.436;2024-03-22T05:25:07;42.00;;;25.27;;
29570;SDS011;16814;52.118;11.436;2024-03-22T05:27:33;43.63;;;24.60;;
29570;SDS011;16814;52.118;11.436;2024-03-22T05:29:59;44.92;;;26.27;;
29570;SDS011;16814;52.118;11.436;2024-03-22T05:32:24;47.30;;;27.17;;
29570;SDS011;16814;52.118;11.436;2024-03-22T05:34:51;46.00;;;26.48;;
29570;SDS011;16814;52.118;11.436;2024-03-22T05:37:17;42.93;;;25.63;;
29570;SDS011;16814;52.118;11.436;2024-03-22T05:39:42;47.53;;;26.75;;
29570;SDS011;16814;52.118;11.436;2024-03-22T05:42:08;48.70;;;27.53;;
29570;SDS011;16814;52.118;11.436;2024-03-22T05:44:34;44.55;;;26.63;;
29570;SDS011;16814;52.118;11.436;2024-03-22T05:46:59;49.07;;;27.70;;
29570;SDS011;16814;52.118;11.436;2024-03-22T05:49:25;47.90;;;26.75;;
29570;SDS011;16814;52.118;11.436;2024-03-22T05:51:51;44.08;;;26.73;;
29570;SDS011;16814;52.118;11.436;2024-03-22T05:54:17;46.70;;;27.10;;
29570;SDS011;16814;52.118;11.436;2024-03-22T05:56:42;44.97;;;27.07;;
29570;SDS011;16814;52.118;11.436;2024-03-22T05:59:08;46.15;;;27.25;;
29570;SDS011;16814;52.118;11.436;2024-03-22T06:01:33;44.83;;;25.40;;
29570;SDS011;16814;52.118;11.436;2024-03-22T06:03:59;44.83;;;25.93;;
29570;SDS011;16814;52.118;11.436;2024-03-22T06:06:25;45.03;;;26.77;;
29570;SDS011;16814;52.118;11.436;2024-03-22T06:08:51;48.08;;;26.65;;
29570;SDS011;16814;52.118;11.436;2024-03-22T06:11:18;46.83;;;26.08;;
29570;SDS011;16814;52.118;11.436;2024-03-22T06:13:44;44.53;;;26.17;;
29570;SDS011;16814;52.118;11.436;2024-03-22T06:16:10;47.95;;;26.85;;
29570;SDS011;16814;52.118;11.436;2024-03-22T06:18:36;46.97;;;26.70;;
29570;SDS011;16814;52.118;11.436;2024-03-22T06:21:01;42.58;;;24.63;;
29570;SDS011;16814;52.118;11.436;2024-03-22T06:23:28;46.57;;;25.93;;
29570;SDS011;16814;52.118;11.436;2024-03-22T06:25:54;41.85;;;25.30;;
29570;SDS011;16814;52.118;11.436;2024-03-22T06:28:20;40.40;;;25.33;;
29570;SDS011;16814;52.118;11.436;2024-03-22T06:30:46;43.90;;;25.75;;
29570;SDS011;16814;52.118;11.436;2024-03-22T06:33:11;43.90;;;26.07;;
29570;SDS011;16814;52.118;11.436;2024-03-22T06:35:37;42.43;;;25.03;;
29570;SDS011;16814;52.118;11.436;2024-03-22T06:38:03;44.83;;;26.48;;
29570;SDS011;16814;52.118;11.436;2024-03-22T06:40:29;41.38;;;25.73;;
29570;SDS011;16814;52.118;11.436;2024-03-22T06:42:55;40.40;;;25.13;;
29570;SDS011;16814;52.118;11.436;2024-03-22T06:45:20;44.08;;;24.92;;
29570;SDS011;16814;52.118;11.436;2024-03-22T06:47:46;43.60;;;26.00;;
29570;SDS011;16814;52.118;11.436;2024-03-22T06:50:12;41.05;;;24.90;;
29570;SDS011;16814;52.118;11.436;2024-03-22T06:52:38;44.33;;;25.37;;
29570;SDS011;16814;52.118;11.436;2024-03-22T06:55:03;43.72;;;24.73;;
29570;SDS011;16814;52.118;11.436;2024-03-22T06:57:29;42.67;;;25.65;;
29570;SDS011;16814;52.118;11.436;2024-03-22T06:59:55;42.13;;;25.53;;
29570;SDS011;16814;52.118;11.436;2024-03-22T07:02:20;44.00;;;24.90;;
29570;SDS011;16814;52.118;11.436;2024-03-22T07:04:46;41.53;;;24.35;;
29570;SDS011;16814;52.118;11.436;2024-03-22T07:07:12;42.63;;;24.43;;
29570;SDS011;16814;52.118;11.436;2024-03-22T07:09:37;41.47;;;24.37;;
29570;SDS011;16814;52.118;11.436;2024-03-22T07:12:03;45.25;;;24.60;;
29570;SDS011;16814;52.118;11.436;2024-03-22T07:14:29;42.13;;;24.53;;
29570;SDS011;16814;52.118;11.436;2024-03-22T07:16:54;40.92;;;24.33;;
29570;SDS011;16814;52.118;11.436;2024-03-22T07:19:20;45.37;;;24.63;;
29570;SDS011;16814;52.118;11.436;2024-03-22T07:21:46;43.55;;;23.70;;
29570;SDS011;16814;52.118;11.436;2024-03-22T07:24:12;40.90;;;23.02;;
29570;SDS011;16814;52.118;11.436;2024-03-22T07:26:38;41.65;;;23.30;;
29570;SDS011;16814;52.118;11.436;2024-03-22T07:29:03;42.80;;;23.73;;
29570;SDS011;16814;52.118;11.436;2024-03-22T07:31:29;42.57;;;23.37;;
29570;SDS011;16814;52.118;11.436;2024-03-22T07:33:55;40.53;;;23.42;;
29570;SDS011;16814;52.118;11.436;2024-03-22T07:36:21;41.40;;;23.50;;
29570;SDS011;16814;52.118;11.436;2024-03-22T07:38:46;41.72;;;23.25;;
29570;SDS011;16814;52.118;11.436;2024-03-22T07:41:14;42.33;;;23.20;;
29570;SDS011;16814;52.118;11.436;2024-03-22T07:43:39;40.63;;;22.48;;
29570;SDS011;16814;52.118;11.436;2024-03-22T07:46:05;44.27;;;22.97;;
29570;SDS011;16814;52.118;11.436;2024-03-22T07:48:31;41.40;;;23.37;;
29570;SDS011;16814;52.118;11.436;2024-03-22T07:50:59;37.80;;;22.23;;
29570;SDS011;16814;52.118;11.436;2024-03-22T07:53:26;40.65;;;23.85;;
29570;SDS011;16814;52.118;11.436;2024-03-22T07:55:52;38.75;;;22.83;;
29570;SDS011;16814;52.118;11.436;2024-03-22T07:58:17;42.17;;;23.03;;
29570;SDS011;16814;52.118;11.436;2024-03-22T08:00:44;43.38;;;23.52;;
29570;SDS011;16814;52.118;11.436;2024-03-22T08:03:13;39.83;;;22.65;;
29570;SDS011;16814;52.118;11.436;2024-03-22T08:05:40;42.58;;;23.20;;
29570;SDS011;16814;52.118;11.436;2024-03-22T08:08:06;42.20;;;23.57;;
29570;SDS011;16814;52.118;11.436;2024-03-22T08:10:31;46.95;;;25.05;;
29570;SDS011;16814;52.118;11.436;2024-03-22T08:12:57;41.73;;;23.63;;
29570;SDS011;16814;52.118;11.436;2024-03-22T08:15:23;44.70;;;24.58;;
29570;SDS011;16814;52.118;11.436;2024-03-22T08:17:48;42.80;;;23.47;;
29570;SDS011;16814;52.118;11.436;2024-03-22T08:20:14;45.23;;;24.70;;
29570;SDS011;16814;52.118;11.436;2024-03-22T08:22:39;41.03;;;23.85;;
29570;SDS011;16814;52.118;11.436;2024-03-22T08:25:05;42.47;;;24.40;;
29570;SDS011;16814;52.118;11.436;2024-03-22T08:27:32;45.00;;;24.13;;
29570;SDS011;16814;52.118;11.436;2024-03-22T08:29:59;45.27;;;24.57;;
29570;SDS011;16814;52.118;11.436;2024-03-22T08:32:25;42.67;;;23.80;;
29570;SDS011;16814;52.118;11.436;2024-03-22T08:34:50;41.47;;;23.30;;
29570;SDS011;16814;52.118;11.436;2024-03-22T08:37:16;39.40;;;22.58;;
29570;SDS011;16814;52.118;11.436;2024-03-22T08:39:41;42.38;;;23.23;;
29570;SDS011;16814;52.118;11.436;2024-03-22T08:42:07;50.40;;;23.93;;
29570;SDS011;16814;52.118;11.436;2024-03-22T08:44:34;42.22;;;23.17;;
29570;SDS011;16814;52.118;11.436;2024-03-22T08:47:00;41.33;;;22.97;;
29570;SDS011;16814;52.118;11.436;2024-03-22T08:49:25;44.80;;;23.98;;
29570;SDS011;16814;52.118;11.436;2024-03-22T08:51:51;38.47;;;23.00;;
29570;SDS011;16814;52.118;11.436;2024-03-22T08:54:16;38.80;;;23.37;;
29570;SDS011;16814;52.118;11.436;2024-03-22T08:56:42;46.53;;;24.33;;
29570;SDS011;16814;52.118;11.436;2024-03-22T08:59:08;39.67;;;22.83;;
29570;SDS011;16814;52.118;11.436;2024-03-22T09:01:33;41.17;;;22.63;;
29570;SDS011;16814;52.118;11.436;2024-03-22T09:04:00;39.55;;;22.58;;
29570;SDS011;16814;52.118;11.436;2024-03-22T09:06:25;43.10;;;23.00;;
29570;SDS011;16814;52.118;11.436;2024-03-22T09:08:51;39.90;;;22.93;;
29570;SDS011;16814;52.118;11.436;2024-03-22T09:11:16;40.60;;;22.90;;
29570;SDS011;16814;52.118;11.436;2024-03-22T09:13:43;38.47;;;22.80;;
29570;SDS011;16814;52.118;11.436;2024-03-22T09:16:14;38.27;;;23.20;;
29570;SDS011;16814;52.118;11.436;2024-03-22T09:18:40;40.03;;;22.45;;
29570;SDS011;16814;52.118;11.436;2024-03-22T09:21:06;41.50;;;21.77;;
29570;SDS011;16814;52.118;11.436;2024-03-22T09:23:33;38.55;;;21.73;;
29570;SDS011;16814;52.118;11.436;2024-03-22T09:25:59;39.00;;;21.53;;
29570;SDS011;16814;52.118;11.436;2024-03-22T09:28:25;37.78;;;21.40;;
29570;SDS011;16814;52.118;11.436;2024-03-22T09:30:51;35.88;;;21.27;;
29570;SDS011;16814;52.118;11.436;2024-03-22T09:33:16;38.30;;;21.73;;
29570;SDS011;16814;52.118;11.436;2024-03-22T09:35:43;36.13;;;20.77;;
29570;SDS011;16814;52.118;11.436;2024-03-22T09:38:08;37.37;;;20.70;;
29570;SDS011;16814;52.118;11.436;2024-03-22T09:40:34;34.28;;;20.65;;
29570;SDS011;16814;52.118;11.436;2024-03-22T09:43:04;33.60;;;19.53;;
29570;SDS011;16814;52.118;11.436;2024-03-22T09:45:32;38.00;;;19.58;;
29570;SDS011;16814;52.118;11.436;2024-03-22T09:47:58;34.10;;;18.40;;
29570;SDS011;16814;52.118;11.436;2024-03-22T09:50:25;30.52;;;17.85;;
29570;SDS011;16814;52.118;11.436;2024-03-22T09:52:53;30.67;;;16.63;;
29570;SDS011;16814;52.118;11.436;2024-03-22T09:55:24;28.77;;;15.87;;
29570;SDS011;16814;52.118;11.436;2024-03-22T09:57:50;30.48;;;15.80;;
29570;SDS011;16814;52.118;11.436;2024-03-22T10:00:18;25.90;;;15.98;;
29570;SDS011;16814;52.118;11.436;2024-03-22T10:02:48;28.85;;;16.27;;
29570;SDS011;16814;52.118;11.436;2024-03-22T10:05:15;26.83;;;15.03;;
29570;SDS011;16814;52.118;11.436;2024-03-22T10:07:42;29.38;;;15.68;;
29570;SDS011;16814;52.118;11.436;2024-03-22T10:10:09;27.70;;;15.45;;
29570;SDS011;16814;52.118;11.436;2024-03-22T10:12:35;31.23;;;15.40;;
29570;SDS011;16814;52.118;11.436;2024-03-22T10:15:01;27.47;;;13.90;;
29570;SDS011;16814;52.118;11.436;2024-03-22T10:17:27;33.20;;;15.70;;
29570;SDS011;16814;52.118;11.436;2024-03-22T10:19:54;28.83;;;15.63;;
29570;SDS011;16814;52.118;11.436;2024-03-22T10:22:19;28.37;;;15.83;;
29570;SDS011;16814;52.118;11.436;2024-03-22T10:24:45;34.85;;;15.32;;
29570;SDS011;16814;52.118;11.436;2024-03-22T10:27:11;26.10;;;14.07;;
29570;SDS011;16814;52.118;11.436;2024-03-22T10:29:37;28.52;;;14.90;;
29570;SDS011;16814;52.118;11.436;2024-03-22T10:32:03;24.57;;;12.77;;
29570;SDS011;16814;52.118;11.436;2024-03-22T10:34:29;23.38;;;12.70;;
29570;SDS011;16814;52.118;11.436;2024-03-22T10:36:58;22.92;;;12.93;;
29570;SDS011;16814;52.118;11.436;2024-03-22T10:39:25;21.90;;;12.33;;
29570;SDS011;16814;52.118;11.436;2024-03-22T10:41:51;22.50;;;12.07;;
29570;SDS011;16814;52.118;11.436;2024-03-22T10:44:18;23.13;;;11.93;;
29570;SDS011;16814;52.118;11.436;2024-03-22T10:46:44;23.27;;;12.47;;
29570;SDS011;16814;52.118;11.436;2024-03-22T10:49:17;23.75;;;12.40;;
29570;SDS011;16814;52.118;11.436;2024-03-22T10:51:44;21.77;;;12.38;;
29570;SDS011;16814;52.118;11.436;2024-03-22T10:54:16;24.40;;;13.03;;
29570;SDS011;16814;52.118;11.436;2024-03-22T10:56:44;23.75;;;11.90;;
29570;SDS011;16814;52.118;11.436;2024-03-22T10:59:19;21.55;;;11.90;;
29570;SDS011;16814;52.118;11.436;2024-03-22T11:01:45;20.20;;;11.52;;
29570;SDS011;16814;52.118;11.436;2024-03-22T11:04:11;21.63;;;11.60;;
29570;SDS011;16814;52.118;11.436;2024-03-22T11:06:37;19.88;;;11.60;;
29570;SDS011;16814;52.118;11.436;2024-03-22T11:09:03;22.33;;;12.30;;
29570;SDS011;16814;52.118;11.436;2024-03-22T11:11:34;20.45;;;11.57;;
29570;SDS011;16814;52.118;11.436;2024-03-22T11:14:03;23.08;;;11.15;;
29570;SDS011;16814;52.118;11.436;2024-03-22T11:16:29;23.90;;;11.70;;
29570;SDS011;16814;52.118;11.436;2024-03-22T11:18:55;31.13;;;11.43;;
29570;SDS011;16814;52.118;11.436;2024-03-22T11:21:21;19.13;;;11.20;;
29570;SDS011;16814;52.118;11.436;2024-03-22T11:23:46;19.70;;;10.93;;
29570;SDS011;16814;52.118;11.436;2024-03-22T11:26:12;19.50;;;10.70;;
29570;SDS011;16814;52.118;11.436;2024-03-22T11:28:38;20.63;;;10.87;;
29570;SDS011;16814;52.118;11.436;2024-03-22T11:31:04;20.17;;;10.32;;
29570;SDS011;16814;52.118;11.436;2024-03-22T11:33:30;20.27;;;10.90;;
29570;SDS011;16814;52.118;11.436;2024-03-22T11:35:59;19.48;;;10.27;;
29570;SDS011;16814;52.118;11.436;2024-03-22T11:38:29;20.02;;;10.50;;
29570;SDS011;16814;52.118;11.436;2024-03-22T11:40:56;18.40;;;11.43;;
29570;SDS011;16814;52.118;11.436;2024-03-22T11:43:23;21.50;;;11.00;;
29570;SDS011;16814;52.118;11.436;2024-03-22T11:45:49;22.65;;;11.48;;
29570;SDS011;16814;52.118;11.436;2024-03-22T11:48:14;19.93;;;11.07;;
29570;SDS011;16814;52.118;11.436;2024-03-22T11:50:41;20.58;;;12.07;;
29570;SDS011;16814;52.118;11.436;2024-03-22T11:53:06;20.30;;;11.50;;
29570;SDS011;16814;52.118;11.436;2024-03-22T11:55:35;20.00;;;11.50;;
29570;SDS011;16814;52.118;11.436;2024-03-22T11:58:01;19.65;;;11.48;;
29570;SDS011;16814;52.118;11.436;2024-03-22T12:00:27;20.37;;;11.50;;
29570;SDS011;16814;52.118;11.436;2024-03-22T12:02:53;21.10;;;11.43;;
29570;SDS011;16814;52.118;11.436;2024-03-22T12:05:18;25.13;;;11.35;;
29570;SDS011;16814;52.118;11.436;2024-03-22T12:07:45;19.67;;;11.00;;
29570;SDS011;16814;52.118;11.436;2024-03-22T12:10:11;18.93;;;11.00;;
29570;SDS011;16814;52.118;11.436;2024-03-22T12:12:36;18.55;;;11.23;;
29570;SDS011;16814;52.118;11.436;2024-03-22T12:15:03;19.30;;;11.10;;
29570;SDS011;16814;52.118;11.436;2024-03-22T12:17:29;20.33;;;10.80;;
29570;SDS011;16814;52.118;11.436;2024-03-22T12:19:55;22.07;;;11.00;;
29570;SDS011;16814;52.118;11.436;2024-03-22T12:22:21;17.77;;;10.65;;
29570;SDS011;16814;52.118;11.436;2024-03-22T12:24:47;19.48;;;10.73;;
29570;SDS011;16814;52.118;11.436;2024-03-22T12:27:13;17.97;;;10.37;;
29570;SDS011;16814;52.118;11.436;2024-03-22T12:29:38;19.63;;;11.23;;
29570;SDS011;16814;52.118;11.436;2024-03-22T12:32:04;17.73;;;10.35;;
29570;SDS011;16814;52.118;11.436;2024-03-22T12:34:31;19.85;;;10.52;;
29570;SDS011;16814;52.118;11.436;2024-03-22T12:36:58;18.33;;;11.05;;
29570;SDS011;16814;52.118;11.436;2024-03-22T12:39:24;18.50;;;10.93;;
29570;SDS011;16814;52.118;11.436;2024-03-22T12:41:50;16.85;;;10.15;;
29570;SDS011;16814;52.118;11.436;2024-03-22T12:44:16;20.08;;;11.38;;
29570;SDS011;16814;52.118;11.436;2024-03-22T12:46:41;19.67;;;11.10;;
29570;SDS011;16814;52.118;11.436;2024-03-22T12:49:09;17.92;;;11.02;;
29570;SDS011;16814;52.118;11.436;2024-03-22T12:51:35;18.77;;;11.00;;
29570;SDS011;16814;52.118;11.436;2024-03-22T12:54:02;21.48;;;12.05;;
29570;SDS011;16814;52.118;11.436;2024-03-22T12:56:28;20.50;;;11.30;;
29570;SDS011;16814;52.118;11.436;2024-03-22T12:58:53;21.00;;;11.20;;
29570;SDS011;16814;52.118;11.436;2024-03-22T13:01:19;24.00;;;13.00;;
29570;SDS011;16814;52.118;11.436;2024-03-22T13:03:45;18.65;;;11.70;;
29570;SDS011;16814;52.118;11.436;2024-03-22T13:06:11;27.83;;;12.73;;
29570;SDS011;16814;52.118;11.436;2024-03-22T13:08:37;24.80;;;12.80;;
29570;SDS011;16814;52.118;11.436;2024-03-22T13:11:03;22.42;;;13.30;;
29570;SDS011;16814;52.118;11.436;2024-03-22T13:13:29;21.95;;;13.20;;
29570;SDS011;16814;52.118;11.436;2024-03-22T13:15:56;21.90;;;13.97;;
29570;SDS011;16814;52.118;11.436;2024-03-22T13:18:22;26.58;;;13.98;;
29570;SDS011;16814;52.118;11.436;2024-03-22T13:20:48;24.00;;;13.60;;
29570;SDS011;16814;52.118;11.436;2024-03-22T13:23:13;25.95;;;15.13;;
29570;SDS011;16814;52.118;11.436;2024-03-22T13:25:39;22.90;;;14.27;;
29570;SDS011;16814;52.118;11.436;2024-03-22T13:28:05;25.90;;;14.57;;
29570;SDS011;16814;52.118;11.436;2024-03-22T13:30:31;24.55;;;15.65;;
29570;SDS011;16814;52.118;11.436;2024-03-22T13:32:57;28.50;;;15.70;;
29570;SDS011;16814;52.118;11.436;2024-03-22T13:35:22;27.48;;;16.40;;
29570;SDS011;16814;52.118;11.436;2024-03-22T13:37:48;27.67;;;16.53;;
29570;SDS011;16814;52.118;11.436;2024-03-22T13:40:13;29.98;;;16.85;;
29570;SDS011;16814;52.118;11.436;2024-03-22T13:42:40;32.75;;;18.00;;
29570;SDS011;16814;52.118;11.436;2024-03-22T13:45:05;30.42;;;17.15;;
29570;SDS011;16814;52.118;11.436;2024-03-22T13:47:31;28.90;;;17.37;;
29570;SDS011;16814;52.118;11.436;2024-03-22T13:49:57;30.10;;;17.73;;
29570;SDS011;16814;52.118;11.436;2024-03-22T13:52:22;26.23;;;17.07;;
29570;SDS011;16814;52.118;11.436;2024-03-22T13:54:48;33.83;;;17.85;;
29570;SDS011;16814;52.118;11.436;2024-03-22T13:57:15;30.30;;;18.00;;
29570;SDS011;16814;52.118;11.436;2024-03-22T13:59:40;32.60;;;18.57;;
29570;SDS011;16814;52.118;11.436;2024-03-22T14:02:06;31.25;;;18.63;;